WXM80 ListenWXM80 Stop

You find our weather info also at:

UK Metoffice

WeatherCloud

Weather Underground

Northeastern Weather Network

AWEKAS

Citizen Weather Observer Program (CWOP)

HAMweather, WeatherForYou, PWS Weather


Weather Underground History page Text

Daily Summary for February 18, 2018 Units:  Both    English   Metric
« Previous Day
Next Day »
Daily Weekly Monthly Yearly Custom
  High: Low: Average:
Temperature: 46.1 °F /  7.8 °C 30.2 °F /  -1 °C 37.4 °F /  3 °C
Dew Point: 34.2 °F /  1.2 °C 26.4 °F /  -3.1 °C 30.6 °F /  -0.8 °C
Humidity: 97 % 51 % 78 %
Wind Speed: 10.4 mph /  16.7 km/h - 2.5 mph /  4 km/h
Wind Gust: 15.0 mph /  24.1 km/h - -
Wind:- - West
Pressure: 30.28 in /  1025.3 hPa 29.69 in /  1005.3 hPa -
Precipitation: 0.02 in /  0.51 mm    
Historical Graphs
 
 
Tabular Data for February 18, 2018
Time Temperature Dew Point Pressure Wind Wind Speed Wind Gust Humidity Rainfall Rate (Hourly)
00:00 33.0 °F /  0.6 °C 32.2 °F /  0.1 °C 29.75 in /  1007.3 hPa Calm     97 % 0.06 in /  1.52 mm
00:05 33.0 °F /  0.6 °C 32.2 °F /  0.1 °C 29.75 in /  1007.3 hPa Calm     97 % 0.05 in /  1.27 mm
00:10 33.0 °F /  0.6 °C 32.2 °F /  0.1 °C 29.74 in /  1007 hPa Calm     97 % 0.05 in /  1.27 mm
00:15 33.0 °F /  0.6 °C 32.2 °F /  0.1 °C 29.74 in /  1007 hPa Calm     97 % 0.04 in /  1.02 mm
00:20 33.0 °F /  0.6 °C 32.0 °F /  0 °C 29.73 in /  1006.7 hPa Calm     96 % 0.03 in /  0.76 mm
00:25 33.0 °F /  0.6 °C 32.2 °F /  0.1 °C 29.73 in /  1006.7 hPa Calm     97 % 0.04 in /  1.02 mm
00:30 33.0 °F /  0.6 °C 32.0 °F /  0 °C 29.73 in /  1006.7 hPa Calm     96 % 0.03 in /  0.76 mm
00:35 33.0 °F /  0.6 °C 32.0 °F /  0 °C 29.72 in /  1006.3 hPa Calm     96 % 0.03 in /  0.76 mm
00:40 33.0 °F /  0.6 °C 32.0 °F /  0 °C 29.72 in /  1006.3 hPa Calm     96 % 0.02 in /  0.51 mm
00:45 33.0 °F /  0.6 °C 32.2 °F /  0.1 °C 29.71 in /  1006 hPa Calm     97 % 0.02 in /  0.51 mm
00:50 33.0 °F /  0.6 °C 32.2 °F /  0.1 °C 29.71 in /  1006 hPa Calm     97 % 0.02 in /  0.51 mm
00:55 33.0 °F /  0.6 °C 32.2 °F /  0.1 °C 29.71 in /  1006 hPa Calm     97 % 0.02 in /  0.51 mm
01:00 33.0 °F /  0.6 °C 32.2 °F /  0.1 °C 29.71 in /  1006 hPa Calm     97 % 0.02 in /  0.51 mm
01:05 33.0 °F /  0.6 °C 32.2 °F /  0.1 °C 29.70 in /  1005.6 hPa Calm     97 % 0.02 in /  0.51 mm
01:11 33.0 °F /  0.6 °C 32.2 °F /  0.1 °C 29.70 in /  1005.6 hPa Calm     97 % 0.00 in /  0 mm
01:16 33.0 °F /  0.6 °C 32.2 °F /  0.1 °C 29.70 in /  1005.6 hPa Calm     97 % 0.00 in /  0 mm
01:21 33.0 °F /  0.6 °C 32.2 °F /  0.1 °C 29.70 in /  1005.6 hPa Calm     97 % 0.00 in /  0 mm
01:26 33.0 °F /  0.6 °C 32.2 °F /  0.1 °C 29.70 in /  1005.6 hPa Calm     97 % 0.00 in /  0 mm
01:31 33.0 °F /  0.6 °C 32.2 °F /  0.1 °C 29.70 in /  1005.6 hPa Calm     97 % 0.00 in /  0 mm
01:36 33.0 °F /  0.6 °C 32.2 °F /  0.1 °C 29.69 in /  1005.3 hPa Calm     97 % 0.00 in /  0 mm
01:41 33.0 °F /  0.6 °C 32.2 °F /  0.1 °C 29.69 in /  1005.3 hPa Calm     97 % 0.00 in /  0 mm
01:46 33.0 °F /  0.6 °C 32.3 °F /  0.2 °C 29.70 in /  1005.6 hPa Calm     97 % 0.00 in /  0 mm
01:51 33.1 °F /  0.6 °C 32.3 °F /  0.2 °C 29.70 in /  1005.6 hPa Calm     97 % 0.00 in /  0 mm
01:56 33.1 °F /  0.6 °C 32.3 °F /  0.2 °C 29.71 in /  1006 hPa Calm     97 % 0.01 in /  0.25 mm
02:01 33.1 °F /  0.6 °C 32.3 °F /  0.2 °C 29.70 in /  1005.6 hPa Calm     97 % 0.00 in /  0 mm
02:06 33.1 °F /  0.6 °C 32.3 °F /  0.2 °C 29.69 in /  1005.3 hPa Calm     97 % 0.00 in /  0 mm
02:11 33.2 °F /  0.7 °C 32.4 °F /  0.2 °C 29.70 in /  1005.6 hPa Calm     97 % 0.00 in /  0 mm
02:16 33.2 °F /  0.7 °C 32.4 °F /  0.2 °C 29.70 in /  1005.6 hPa Calm     97 % 0.00 in /  0 mm
02:21 33.2 °F /  0.7 °C 32.4 °F /  0.2 °C 29.71 in /  1006 hPa Calm     97 % 0.00 in /  0 mm
02:26 33.2 °F /  0.7 °C 32.4 °F /  0.2 °C 29.71 in /  1006 hPa Calm     97 % 0.00 in /  0 mm
02:31 33.2 °F /  0.7 °C 32.4 °F /  0.2 °C 29.70 in /  1005.6 hPa Calm     97 % 0.00 in /  0 mm
02:36 33.2 °F /  0.7 °C 32.4 °F /  0.2 °C 29.70 in /  1005.6 hPa Calm     97 % 0.00 in /  0 mm
02:41 33.2 °F /  0.7 °C 32.4 °F /  0.2 °C 29.69 in /  1005.3 hPa Calm     97 % 0.00 in /  0 mm
02:46 33.2 °F /  0.7 °C 32.4 °F /  0.2 °C 29.69 in /  1005.3 hPa Calm     97 % 0.00 in /  0 mm
02:51 33.3 °F /  0.7 °C 32.5 °F /  0.3 °C 29.69 in /  1005.3 hPa Calm     97 % 0.00 in /  0 mm
02:56 33.3 °F /  0.7 °C 32.5 °F /  0.3 °C 29.69 in /  1005.3 hPa Calm     97 % 0.00 in /  0 mm
03:01 33.2 °F /  0.7 °C 32.4 °F /  0.2 °C 29.69 in /  1005.3 hPa Calm     97 % 0.00 in /  0 mm
03:06 33.2 °F /  0.7 °C 32.4 °F /  0.2 °C 29.69 in /  1005.3 hPa Calm     97 % 0.00 in /  0 mm
03:11 33.3 °F /  0.7 °C 32.5 °F /  0.3 °C 29.70 in /  1005.6 hPa Calm     97 % 0.00 in /  0 mm
03:17 33.3 °F /  0.7 °C 32.5 °F /  0.3 °C 29.70 in /  1005.6 hPa Calm     97 % 0.00 in /  0 mm
03:22 33.3 °F /  0.7 °C 32.5 °F /  0.3 °C 29.70 in /  1005.6 hPa Calm   1.2 mph /  1.9 km/h 97 % 0.00 in /  0 mm
03:27 33.4 °F /  0.8 °C 32.6 °F /  0.3 °C 29.71 in /  1006 hPa West 2.5 mph /  4 km/h 4.6 mph /  7.4 km/h 97 % 0.00 in /  0 mm
03:32 33.4 °F /  0.8 °C 32.6 °F /  0.3 °C 29.72 in /  1006.3 hPa WSW 2.0 mph /  3.2 km/h 4.6 mph /  7.4 km/h 97 % 0.00 in /  0 mm
03:37 33.4 °F /  0.8 °C 32.6 °F /  0.3 °C 29.72 in /  1006.3 hPa West 2.5 mph /  4 km/h 5.8 mph /  9.3 km/h 97 % 0.00 in /  0 mm
03:42 33.5 °F /  0.8 °C 32.7 °F /  0.4 °C 29.72 in /  1006.3 hPa West 0.6 mph /  1 km/h 3.5 mph /  5.6 km/h 97 % 0.00 in /  0 mm
03:47 33.5 °F /  0.8 °C 32.7 °F /  0.4 °C 29.72 in /  1006.3 hPa West 2.4 mph /  3.9 km/h 6.9 mph /  11.1 km/h 97 % 0.00 in /  0 mm
03:52 33.5 °F /  0.8 °C 32.7 °F /  0.4 °C 29.72 in /  1006.3 hPa West 3.4 mph /  5.5 km/h 5.8 mph /  9.3 km/h 97 % 0.00 in /  0 mm
03:57 33.5 °F /  0.8 °C 32.7 °F /  0.4 °C 29.72 in /  1006.3 hPa West 4.9 mph /  7.9 km/h 7.0 mph /  11.3 km/h 97 % 0.00 in /  0 mm
04:02 33.5 °F /  0.8 °C 32.7 °F /  0.4 °C 29.73 in /  1006.7 hPa WNW 0.5 mph /  0.8 km/h 5.8 mph /  9.3 km/h 97 % 0.00 in /  0 mm
04:07 33.5 °F /  0.8 °C 32.7 °F /  0.4 °C 29.73 in /  1006.7 hPa WSW 3.3 mph /  5.3 km/h 6.9 mph /  11.1 km/h 97 % 0.00 in /  0 mm
04:12 33.6 °F /  0.9 °C 32.8 °F /  0.4 °C 29.74 in /  1007 hPa WNW 5.0 mph /  8 km/h 10.0 mph /  16.1 km/h 97 % 0.00 in /  0 mm
04:17 33.6 °F /  0.9 °C 32.8 °F /  0.4 °C 29.73 in /  1006.7 hPa West 3.8 mph /  6.1 km/h 5.8 mph /  9.3 km/h 97 % 0.00 in /  0 mm
04:22 33.6 °F /  0.9 °C 32.8 °F /  0.4 °C 29.74 in /  1007 hPa WSW 4.8 mph /  7.7 km/h 9.2 mph /  14.8 km/h 97 % 0.00 in /  0 mm
04:27 33.6 °F /  0.9 °C 32.8 °F /  0.4 °C 29.74 in /  1007 hPa WNW 6.8 mph /  10.9 km/h 11.5 mph /  18.5 km/h 97 % 0.00 in /  0 mm
04:32 33.6 °F /  0.9 °C 32.8 °F /  0.4 °C 29.75 in /  1007.3 hPa WSW 3.5 mph /  5.6 km/h 5.0 mph /  8 km/h 97 % 0.00 in /  0 mm
04:37 33.6 °F /  0.9 °C 32.8 °F /  0.4 °C 29.75 in /  1007.3 hPa West 4.6 mph /  7.4 km/h 11.5 mph /  18.5 km/h 97 % 0.00 in /  0 mm
04:42 33.6 °F /  0.9 °C 32.8 °F /  0.4 °C 29.75 in /  1007.3 hPa West 3.2 mph /  5.1 km/h 11.5 mph /  18.5 km/h 97 % 0.00 in /  0 mm
04:48 33.6 °F /  0.9 °C 32.8 °F /  0.4 °C 29.75 in /  1007.3 hPa West 3.7 mph /  6 km/h 10.4 mph /  16.7 km/h 97 % 0.00 in /  0 mm
04:53 33.5 °F /  0.8 °C 32.7 °F /  0.4 °C 29.75 in /  1007.3 hPa West 3.5 mph /  5.6 km/h 9.2 mph /  14.8 km/h 97 % 0.00 in /  0 mm
04:58 33.5 °F /  0.8 °C 32.7 °F /  0.4 °C 29.76 in /  1007.7 hPa West 2.3 mph /  3.7 km/h 11.5 mph /  18.5 km/h 97 % 0.00 in /  0 mm
05:03 33.5 °F /  0.8 °C 32.7 °F /  0.4 °C 29.76 in /  1007.7 hPa West 2.7 mph /  4.3 km/h 5.8 mph /  9.3 km/h 97 % 0.00 in /  0 mm
05:08 33.5 °F /  0.8 °C 32.7 °F /  0.4 °C 29.77 in /  1008 hPa West 2.8 mph /  4.5 km/h 4.6 mph /  7.4 km/h 97 % 0.00 in /  0 mm
05:13 33.5 °F /  0.8 °C 32.7 °F /  0.4 °C 29.77 in /  1008 hPa WSW 4.4 mph /  7.1 km/h 9.2 mph /  14.8 km/h 97 % 0.00 in /  0 mm
05:18 33.5 °F /  0.8 °C 32.7 °F /  0.4 °C 29.77 in /  1008 hPa West 1.4 mph /  2.3 km/h 3.5 mph /  5.6 km/h 97 % 0.00 in /  0 mm
05:23 33.5 °F /  0.8 °C 32.7 °F /  0.4 °C 29.77 in /  1008 hPa WSW 4.6 mph /  7.4 km/h 9.2 mph /  14.8 km/h 97 % 0.00 in /  0 mm
05:28 33.5 °F /  0.8 °C 32.7 °F /  0.4 °C 29.77 in /  1008 hPa West 3.7 mph /  6 km/h 8.0 mph /  12.9 km/h 97 % 0.00 in /  0 mm
05:33 33.5 °F /  0.8 °C 32.7 °F /  0.4 °C 29.78 in /  1008.4 hPa West 2.9 mph /  4.7 km/h 8.1 mph /  13 km/h 97 % 0.00 in /  0 mm
05:38 33.5 °F /  0.8 °C 32.7 °F /  0.4 °C 29.78 in /  1008.4 hPa West 4.0 mph /  6.4 km/h 7.0 mph /  11.3 km/h 97 % 0.00 in /  0 mm
05:43 33.5 °F /  0.8 °C 32.7 °F /  0.4 °C 29.78 in /  1008.4 hPa WSW 7.3 mph /  11.7 km/h 10.4 mph /  16.7 km/h 97 % 0.00 in /  0 mm
05:48 33.5 °F /  0.8 °C 32.7 °F /  0.4 °C 29.79 in /  1008.7 hPa WSW 3.6 mph /  5.8 km/h 8.1 mph /  13 km/h 97 % 0.00 in /  0 mm
05:53 33.6 °F /  0.9 °C 32.8 °F /  0.4 °C 29.79 in /  1008.7 hPa WNW 3.3 mph /  5.3 km/h 5.8 mph /  9.3 km/h 97 % 0.00 in /  0 mm
05:58 33.6 °F /  0.9 °C 32.8 °F /  0.4 °C 29.80 in /  1009 hPa WNW 5.2 mph /  8.4 km/h 8.0 mph /  12.9 km/h 97 % 0.00 in /  0 mm
06:03 33.6 °F /  0.9 °C 32.8 °F /  0.4 °C 29.80 in /  1009 hPa WNW 2.6 mph /  4.2 km/h 10.4 mph /  16.7 km/h 97 % 0.00 in /  0 mm
06:09 33.7 °F /  0.9 °C 32.9 °F /  0.5 °C 29.81 in /  1009.4 hPa WNW 4.1 mph /  6.6 km/h 12.7 mph /  20.4 km/h 97 % 0.00 in /  0 mm
06:14 33.6 °F /  0.9 °C 32.8 °F /  0.4 °C 29.81 in /  1009.4 hPa WSW 4.1 mph /  6.6 km/h 9.2 mph /  14.8 km/h 97 % 0.00 in /  0 mm
06:19 33.6 °F /  0.9 °C 32.8 °F /  0.4 °C 29.82 in /  1009.7 hPa WSW 5.9 mph /  9.5 km/h 9.2 mph /  14.8 km/h 97 % 0.00 in /  0 mm
06:24 33.6 °F /  0.9 °C 32.8 °F /  0.4 °C 29.82 in /  1009.7 hPa NW 4.4 mph /  7.1 km/h 7.0 mph /  11.3 km/h 97 % 0.00 in /  0 mm
06:29 33.6 °F /  0.9 °C 32.6 °F /  0.3 °C 29.82 in /  1009.7 hPa WNW 3.7 mph /  6 km/h 8.1 mph /  13 km/h 96 % 0.00 in /  0 mm
06:34 33.6 °F /  0.9 °C 32.6 °F /  0.3 °C 29.82 in /  1009.7 hPa WSW 4.3 mph /  6.9 km/h 12.7 mph /  20.4 km/h 96 % 0.00 in /  0 mm
06:39 33.6 °F /  0.9 °C 32.6 °F /  0.3 °C 29.83 in /  1010 hPa WNW 3.8 mph /  6.1 km/h 11.0 mph /  17.7 km/h 96 % 0.00 in /  0 mm
06:44 33.6 °F /  0.9 °C 32.6 °F /  0.3 °C 29.83 in /  1010 hPa WNW 2.9 mph /  4.7 km/h 5.0 mph /  8 km/h 96 % 0.00 in /  0 mm
06:49 33.6 °F /  0.9 °C 32.6 °F /  0.3 °C 29.83 in /  1010 hPa WNW 2.4 mph /  3.9 km/h 5.8 mph /  9.3 km/h 96 % 0.00 in /  0 mm
06:54 33.6 °F /  0.9 °C 32.6 °F /  0.3 °C 29.84 in /  1010.4 hPa West 4.8 mph /  7.7 km/h 6.9 mph /  11.1 km/h 96 % 0.00 in /  0 mm
06:59 33.7 °F /  0.9 °C 32.7 °F /  0.4 °C 29.84 in /  1010.4 hPa WNW 4.5 mph /  7.2 km/h 6.9 mph /  11.1 km/h 96 % 0.00 in /  0 mm
07:04 33.7 °F /  0.9 °C 32.4 °F /  0.2 °C 29.84 in /  1010.4 hPa WNW 3.6 mph /  5.8 km/h 10.4 mph /  16.7 km/h 95 % 0.00 in /  0 mm
07:09 33.8 °F /  1 °C 32.5 °F /  0.3 °C 29.85 in /  1010.7 hPa WNW 6.0 mph /  9.7 km/h 9.2 mph /  14.8 km/h 95 % 0.00 in /  0 mm
07:14 33.9 °F /  1.1 °C 32.6 °F /  0.3 °C 29.86 in /  1011.1 hPa West 6.4 mph /  10.3 km/h 10.4 mph /  16.7 km/h 95 % 0.00 in /  0 mm
07:19 34.1 °F /  1.2 °C 32.6 °F /  0.3 °C 29.87 in /  1011.4 hPa NW 2.5 mph /  4 km/h 9.2 mph /  14.8 km/h 94 % 0.00 in /  0 mm
07:24 34.2 °F /  1.2 °C 32.7 °F /  0.4 °C 29.88 in /  1011.7 hPa West 6.8 mph /  10.9 km/h 10.4 mph /  16.7 km/h 94 % 0.00 in /  0 mm
07:29 34.3 °F /  1.3 °C 32.5 °F /  0.3 °C 29.88 in /  1011.7 hPa WNW 3.3 mph /  5.3 km/h 10.0 mph /  16.1 km/h 93 % 0.00 in /  0 mm
07:35 34.4 °F /  1.3 °C 32.6 °F /  0.3 °C 29.89 in /  1012.1 hPa WNW 3.6 mph /  5.8 km/h 11.5 mph /  18.5 km/h 93 % 0.00 in /  0 mm
07:40 34.4 °F /  1.3 °C 32.3 °F /  0.2 °C 29.90 in /  1012.4 hPa NW 6.5 mph /  10.5 km/h 10.0 mph /  16.1 km/h 92 % 0.00 in /  0 mm
07:45 34.5 °F /  1.4 °C 32.4 °F /  0.2 °C 29.90 in /  1012.4 hPa WNW 7.1 mph /  11.4 km/h 15.0 mph /  24.1 km/h 92 % 0.00 in /  0 mm
07:50 34.6 °F /  1.4 °C 32.2 °F /  0.1 °C 29.90 in /  1012.4 hPa SW 4.0 mph /  6.4 km/h 9.2 mph /  14.8 km/h 91 % 0.00 in /  0 mm
07:55 34.7 °F /  1.5 °C 32.3 °F /  0.2 °C 29.91 in /  1012.8 hPa NW 6.2 mph /  10 km/h 9.2 mph /  14.8 km/h 91 % 0.00 in /  0 mm
08:00 34.7 °F /  1.5 °C 32.1 °F /  0.1 °C 29.91 in /  1012.8 hPa WNW 5.6 mph /  9 km/h 13.8 mph /  22.2 km/h 90 % 0.00 in /  0 mm
08:05 34.8 °F /  1.6 °C 32.2 °F /  0.1 °C 29.91 in /  1012.8 hPa WNW 3.9 mph /  6.3 km/h 6.9 mph /  11.1 km/h 90 % 0.00 in /  0 mm
08:10 34.9 °F /  1.6 °C 32.0 °F /  0 °C 29.91 in /  1012.8 hPa NNW 3.9 mph /  6.3 km/h 8.1 mph /  13 km/h 89 % 0.00 in /  0 mm
08:15 35.1 °F /  1.7 °C 32.2 °F /  0.1 °C 29.91 in /  1012.8 hPa North 10.4 mph /  16.7 km/h 13.8 mph /  22.2 km/h 89 % 0.00 in /  0 mm
08:20 35.3 °F /  1.8 °C 32.4 °F /  0.2 °C 29.92 in /  1013.1 hPa NW 4.6 mph /  7.4 km/h 10.4 mph /  16.7 km/h 89 % 0.00 in /  0 mm
08:25 35.5 °F /  1.9 °C 32.3 °F /  0.2 °C 29.92 in /  1013.1 hPa NNW 4.1 mph /  6.6 km/h 9.2 mph /  14.8 km/h 88 % 0.00 in /  0 mm
08:30 35.6 °F /  2 °C 32.4 °F /  0.2 °C 29.92 in /  1013.1 hPa WNW 6.7 mph /  10.8 km/h 11.0 mph /  17.7 km/h 88 % 0.00 in /  0 mm
08:35 35.8 °F /  2.1 °C 32.3 °F /  0.2 °C 29.92 in /  1013.1 hPa West 4.5 mph /  7.2 km/h 6.9 mph /  11.1 km/h 87 % 0.00 in /  0 mm
08:40 36.0 °F /  2.2 °C 32.5 °F /  0.3 °C 29.92 in /  1013.1 hPa NW 3.0 mph /  4.8 km/h 3.5 mph /  5.6 km/h 87 % 0.00 in /  0 mm
08:45 36.2 °F /  2.3 °C 32.4 °F /  0.2 °C 29.93 in /  1013.4 hPa North 4.0 mph /  6.4 km/h 9.2 mph /  14.8 km/h 86 % 0.00 in /  0 mm
08:51 36.3 °F /  2.4 °C 32.2 °F /  0.1 °C 29.93 in /  1013.4 hPa WNW 3.5 mph /  5.6 km/h 8.1 mph /  13 km/h 85 % 0.00 in /  0 mm
08:56 36.7 °F /  2.6 °C 32.6 °F /  0.3 °C 29.93 in /  1013.4 hPa NW 3.0 mph /  4.8 km/h 9.0 mph /  14.5 km/h 85 % 0.00 in /  0 mm
09:01 36.9 °F /  2.7 °C 32.5 °F /  0.3 °C 29.94 in /  1013.8 hPa NNW 3.4 mph /  5.5 km/h 9.2 mph /  14.8 km/h 84 % 0.00 in /  0 mm
09:06 37.2 °F /  2.9 °C 32.8 °F /  0.4 °C 29.95 in /  1014.1 hPa WNW 4.3 mph /  6.9 km/h 6.9 mph /  11.1 km/h 84 % 0.00 in /  0 mm
09:11 37.5 °F /  3.1 °C 32.8 °F /  0.4 °C 29.95 in /  1014.1 hPa WNW 7.1 mph /  11.4 km/h 10.4 mph /  16.7 km/h 83 % 0.00 in /  0 mm
09:16 37.8 °F /  3.2 °C 33.1 °F /  0.6 °C 29.96 in /  1014.4 hPa WNW 4.6 mph /  7.4 km/h 6.9 mph /  11.1 km/h 83 % 0.00 in /  0 mm
09:21 38.0 °F /  3.3 °C 33.0 °F /  0.6 °C 29.96 in /  1014.4 hPa NNW 3.8 mph /  6.1 km/h 9.2 mph /  14.8 km/h 82 % 0.00 in /  0 mm
09:31 38.3 °F /  3.5 °C 33.0 °F /  0.6 °C 29.95 in /  1014.1 hPa North 5.1 mph /  8.2 km/h 8.1 mph /  13 km/h 81 % 0.00 in /  0 mm
09:36 38.6 °F /  3.7 °C 33.9 °F /  1.1 °C 29.96 in /  1014.4 hPa NW 2.1 mph /  3.4 km/h 6.0 mph /  9.7 km/h 83 % 0.00 in /  0 mm
09:41 38.9 °F /  3.8 °C 34.2 °F /  1.2 °C 29.96 in /  1014.4 hPa NNW 0.5 mph /  0.8 km/h 3.5 mph /  5.6 km/h 83 % 0.00 in /  0 mm
09:46 39.1 °F /  3.9 °C 33.8 °F /  1 °C 29.97 in /  1014.8 hPa North 1.5 mph /  2.4 km/h 4.6 mph /  7.4 km/h 81 % 0.00 in /  0 mm
09:51 39.3 °F /  4.1 °C 34.0 °F /  1.1 °C 29.98 in /  1015.1 hPa NNW 3.5 mph /  5.6 km/h 5.8 mph /  9.3 km/h 81 % 0.00 in /  0 mm
09:56 39.5 °F /  4.2 °C 33.8 °F /  1 °C 29.98 in /  1015.1 hPa North 3.4 mph /  5.5 km/h 8.1 mph /  13 km/h 80 % 0.00 in /  0 mm
10:01 39.6 °F /  4.2 °C 33.3 °F /  0.7 °C 29.99 in /  1015.5 hPa NNE 7.0 mph /  11.3 km/h 10.0 mph /  16.1 km/h 78 % 0.00 in /  0 mm
10:06 39.5 °F /  4.2 °C 32.6 °F /  0.3 °C 29.99 in /  1015.5 hPa NNW 4.2 mph /  6.8 km/h 9.2 mph /  14.8 km/h 76 % 0.00 in /  0 mm
10:12 39.6 °F /  4.2 °C 32.3 °F /  0.2 °C 29.99 in /  1015.5 hPa NNW 4.3 mph /  6.9 km/h 9.2 mph /  14.8 km/h 75 % 0.00 in /  0 mm
10:17 39.8 °F /  4.3 °C 32.5 °F /  0.3 °C 29.99 in /  1015.5 hPa NNW 1.8 mph /  2.9 km/h 6.9 mph /  11.1 km/h 75 % 0.00 in /  0 mm
10:22 40.1 °F /  4.5 °C 32.5 °F /  0.3 °C 29.99 in /  1015.5 hPa North 2.5 mph /  4 km/h 6.9 mph /  11.1 km/h 74 % 0.00 in /  0 mm
10:27 40.4 °F /  4.7 °C 32.1 °F /  0.1 °C 30.00 in /  1015.8 hPa NNW 2.7 mph /  4.3 km/h 5.8 mph /  9.3 km/h 72 % 0.00 in /  0 mm
10:32 40.5 °F /  4.7 °C 31.8 °F /  -0.1 °C 30.01 in /  1016.1 hPa West 3.7 mph /  6 km/h 9.2 mph /  14.8 km/h 71 % 0.00 in /  0 mm
10:37 40.7 °F /  4.8 °C 31.7 °F /  -0.2 °C 30.02 in /  1016.5 hPa NNW 4.4 mph /  7.1 km/h 9.2 mph /  14.8 km/h 70 % 0.00 in /  0 mm
10:42 40.8 °F /  4.9 °C 31.4 °F /  -0.3 °C 30.03 in /  1016.8 hPa North 5.3 mph /  8.5 km/h 7.0 mph /  11.3 km/h 69 % 0.00 in /  0 mm
10:47 40.9 °F /  4.9 °C 31.5 °F /  -0.3 °C 30.02 in /  1016.5 hPa NNW 6.6 mph /  10.6 km/h 11.5 mph /  18.5 km/h 69 % 0.00 in /  0 mm
10:52 41.1 °F /  5.1 °C 32.1 °F /  0.1 °C 30.02 in /  1016.5 hPa NNW 5.1 mph /  8.2 km/h 9.2 mph /  14.8 km/h 70 % 0.00 in /  0 mm
10:57 41.4 °F /  5.2 °C 31.6 °F /  -0.2 °C 30.02 in /  1016.5 hPa WNW 5.7 mph /  9.2 km/h 10.4 mph /  16.7 km/h 68 % 0.00 in /  0 mm
11:02 41.8 °F /  5.4 °C 32.0 °F /  0 °C 30.02 in /  1016.5 hPa WNW 5.4 mph /  8.7 km/h 9.0 mph /  14.5 km/h 68 % 0.00 in /  0 mm
11:07 42.1 °F /  5.6 °C 32.3 °F /  0.2 °C 30.04 in /  1017.2 hPa NNW 7.2 mph /  11.6 km/h 12.0 mph /  19.3 km/h 68 % 0.00 in /  0 mm
11:12 42.2 °F /  5.7 °C 31.6 °F /  -0.2 °C 30.04 in /  1017.2 hPa NW 4.6 mph /  7.4 km/h 8.1 mph /  13 km/h 66 % 0.00 in /  0 mm
11:17 42.3 °F /  5.7 °C 32.1 °F /  0.1 °C 30.04 in /  1017.2 hPa NW 4.7 mph /  7.6 km/h 6.9 mph /  11.1 km/h 67 % 0.00 in /  0 mm
11:22 42.6 °F /  5.9 °C 32.0 °F /  0 °C 30.03 in /  1016.8 hPa North 4.0 mph /  6.4 km/h 8.1 mph /  13 km/h 66 % 0.00 in /  0 mm
11:27 42.8 °F /  6 °C 32.2 °F /  0.1 °C 30.03 in /  1016.8 hPa NW 3.5 mph /  5.6 km/h 8.1 mph /  13 km/h 66 % 0.00 in /  0 mm
11:32 43.2 °F /  6.2 °C 32.6 °F /  0.3 °C 30.04 in /  1017.2 hPa WNW 4.9 mph /  7.9 km/h 8.1 mph /  13 km/h 66 % 0.00 in /  0 mm
11:37 43.3 °F /  6.3 °C 32.3 °F /  0.2 °C 30.05 in /  1017.5 hPa West 4.3 mph /  6.9 km/h 6.9 mph /  11.1 km/h 65 % 0.00 in /  0 mm
11:42 43.2 °F /  6.2 °C 31.1 °F /  -0.5 °C 30.06 in /  1017.8 hPa NW 5.2 mph /  8.4 km/h 7.0 mph /  11.3 km/h 62 % 0.00 in /  0 mm
11:47 43.3 °F /  6.3 °C 31.5 °F /  -0.3 °C 30.06 in /  1017.8 hPa WNW 3.6 mph /  5.8 km/h 4.0 mph /  6.4 km/h 63 % 0.00 in /  0 mm
11:53 43.3 °F /  6.3 °C 31.1 °F /  -0.5 °C 30.06 in /  1017.8 hPa NW 5.7 mph /  9.2 km/h 10.4 mph /  16.7 km/h 62 % 0.00 in /  0 mm
11:58 43.3 °F /  6.3 °C 31.5 °F /  -0.3 °C 30.06 in /  1017.8 hPa WNW 4.7 mph /  7.6 km/h 11.5 mph /  18.5 km/h 63 % 0.00 in /  0 mm
12:03 43.3 °F /  6.3 °C 31.5 °F /  -0.3 °C 30.06 in /  1017.8 hPa WNW 4.8 mph /  7.7 km/h 8.1 mph /  13 km/h 63 % 0.00 in /  0 mm
12:08 43.3 °F /  6.3 °C 30.7 °F /  -0.7 °C 30.07 in /  1018.2 hPa NW 4.7 mph /  7.6 km/h 8.1 mph /  13 km/h 61 % 0.00 in /  0 mm
12:13 43.1 °F /  6.2 °C 30.1 °F /  -1.1 °C 30.06 in /  1017.8 hPa North 4.7 mph /  7.6 km/h 9.2 mph /  14.8 km/h 60 % 0.00 in /  0 mm
12:18 43.1 °F /  6.2 °C 31.4 °F /  -0.3 °C 30.06 in /  1017.8 hPa NNW 3.7 mph /  6 km/h 6.0 mph /  9.7 km/h 63 % 0.00 in /  0 mm
12:23 43.2 °F /  6.2 °C 29.8 °F /  -1.2 °C 30.07 in /  1018.2 hPa WNW 0.7 mph /  1.1 km/h 4.6 mph /  7.4 km/h 59 % 0.00 in /  0 mm
12:28 43.6 °F /  6.4 °C 31.0 °F /  -0.6 °C 30.08 in /  1018.5 hPa West 1.9 mph /  3.1 km/h 4.0 mph /  6.4 km/h 61 % 0.00 in /  0 mm
12:33 44.0 °F /  6.7 °C 30.2 °F /  -1 °C 30.08 in /  1018.5 hPa NW 0.9 mph /  1.4 km/h 3.5 mph /  5.6 km/h 58 % 0.00 in /  0 mm
12:38 44.3 °F /  6.8 °C 30.9 °F /  -0.6 °C 30.08 in /  1018.5 hPa NW 2.7 mph /  4.3 km/h 6.0 mph /  9.7 km/h 59 % 0.00 in /  0 mm
12:43 44.5 °F /  6.9 °C 30.6 °F /  -0.8 °C 30.08 in /  1018.5 hPa WNW 3.7 mph /  6 km/h 5.8 mph /  9.3 km/h 58 % 0.00 in /  0 mm
12:48 44.8 °F /  7.1 °C 31.3 °F /  -0.4 °C 30.08 in /  1018.5 hPa SW 3.6 mph /  5.8 km/h 7.0 mph /  11.3 km/h 59 % 0.00 in /  0 mm
12:53 45.0 °F /  7.2 °C 30.2 °F /  -1 °C 30.08 in /  1018.5 hPa West 5.1 mph /  8.2 km/h 8.1 mph /  13 km/h 56 % 0.00 in /  0 mm
12:58 45.0 °F /  7.2 °C 29.3 °F /  -1.5 °C 30.08 in /  1018.5 hPa WSW 5.2 mph /  8.4 km/h 9.0 mph /  14.5 km/h 54 % 0.00 in /  0 mm
13:03 45.1 °F /  7.3 °C 29.0 °F /  -1.7 °C 30.08 in /  1018.5 hPa West 1.6 mph /  2.6 km/h 4.6 mph /  7.4 km/h 53 % 0.00 in /  0 mm
13:08 45.2 °F /  7.3 °C 29.5 °F /  -1.4 °C 30.07 in /  1018.2 hPa NW 3.7 mph /  6 km/h 5.0 mph /  8 km/h 54 % 0.00 in /  0 mm
13:13 45.3 °F /  7.4 °C 30.1 °F /  -1.1 °C 30.07 in /  1018.2 hPa WNW 5.2 mph /  8.4 km/h 11.0 mph /  17.7 km/h 55 % 0.00 in /  0 mm
13:18 45.4 °F /  7.4 °C 29.7 °F /  -1.3 °C 30.07 in /  1018.2 hPa NNW 3.2 mph /  5.1 km/h 8.1 mph /  13 km/h 54 % 0.00 in /  0 mm
13:23 45.6 °F /  7.6 °C 30.8 °F /  -0.7 °C 30.08 in /  1018.5 hPa WNW 4.0 mph /  6.4 km/h 6.0 mph /  9.7 km/h 56 % 0.00 in /  0 mm
13:28 45.6 °F /  7.6 °C 29.0 °F /  -1.7 °C 30.08 in /  1018.5 hPa WNW 4.8 mph /  7.7 km/h 9.2 mph /  14.8 km/h 52 % 0.00 in /  0 mm
13:33 45.6 °F /  7.6 °C 29.0 °F /  -1.7 °C 30.08 in /  1018.5 hPa WNW 5.8 mph /  9.3 km/h 11.5 mph /  18.5 km/h 52 % 0.00 in /  0 mm
13:39 45.7 °F /  7.6 °C 29.1 °F /  -1.6 °C 30.07 in /  1018.2 hPa West 4.2 mph /  6.8 km/h 8.1 mph /  13 km/h 52 % 0.00 in /  0 mm
13:44 45.7 °F /  7.6 °C 29.5 °F /  -1.4 °C 30.08 in /  1018.5 hPa SW 4.4 mph /  7.1 km/h 10.4 mph /  16.7 km/h 53 % 0.00 in /  0 mm
13:49 45.8 °F /  7.7 °C 29.2 °F /  -1.6 °C 30.08 in /  1018.5 hPa West 5.6 mph /  9 km/h 6.9 mph /  11.1 km/h 52 % 0.00 in /  0 mm
13:54 45.8 °F /  7.7 °C 28.7 °F /  -1.8 °C 30.09 in /  1018.8 hPa WNW 1.3 mph /  2.1 km/h 4.6 mph /  7.4 km/h 51 % 0.00 in /  0 mm
13:59 45.8 °F /  7.7 °C 28.7 °F /  -1.8 °C 30.09 in /  1018.8 hPa WNW 4.4 mph /  7.1 km/h 8.1 mph /  13 km/h 51 % 0.00 in /  0 mm
14:04 45.9 °F /  7.7 °C 28.8 °F /  -1.8 °C 30.08 in /  1018.5 hPa West 4.0 mph /  6.4 km/h 8.1 mph /  13 km/h 51 % 0.00 in /  0 mm
14:09 45.9 °F /  7.7 °C 29.2 °F /  -1.6 °C 30.08 in /  1018.5 hPa West 3.0 mph /  4.8 km/h 5.8 mph /  9.3 km/h 52 % 0.00 in /  0 mm
14:14 46.0 °F /  7.8 °C 29.3 °F /  -1.5 °C 30.09 in /  1018.8 hPa WNW 4.9 mph /  7.9 km/h 11.5 mph /  18.5 km/h 52 % 0.00 in /  0 mm
14:19 46.0 °F /  7.8 °C 29.3 °F /  -1.5 °C 30.09 in /  1018.8 hPa WSW 4.3 mph /  6.9 km/h 8.1 mph /  13 km/h 52 % 0.00 in /  0 mm
14:24 46.1 °F /  7.8 °C 29.4 °F /  -1.4 °C 30.09 in /  1018.8 hPa NW 3.2 mph /  5.1 km/h 6.0 mph /  9.7 km/h 52 % 0.00 in /  0 mm
14:29 46.0 °F /  7.8 °C 28.9 °F /  -1.7 °C 30.09 in /  1018.8 hPa West 4.8 mph /  7.7 km/h 7.0 mph /  11.3 km/h 51 % 0.00 in /  0 mm
14:34 45.9 °F /  7.7 °C 28.8 °F /  -1.8 °C 30.09 in /  1018.8 hPa NW 3.2 mph /  5.1 km/h 6.0 mph /  9.7 km/h 51 % 0.00 in /  0 mm
14:39 45.6 °F /  7.6 °C 28.5 °F /  -1.9 °C 30.09 in /  1018.8 hPa WNW 3.3 mph /  5.3 km/h 8.1 mph /  13 km/h 51 % 0.00 in /  0 mm
14:44 45.5 °F /  7.5 °C 28.9 °F /  -1.7 °C 30.09 in /  1018.8 hPa WNW 6.6 mph /  10.6 km/h 12.7 mph /  20.4 km/h 52 % 0.00 in /  0 mm
14:49 45.3 °F /  7.4 °C 28.2 °F /  -2.1 °C 30.09 in /  1018.8 hPa West 1.9 mph /  3.1 km/h 9.2 mph /  14.8 km/h 51 % 0.00 in /  0 mm
14:54 45.1 °F /  7.3 °C 28.5 °F /  -1.9 °C 30.09 in /  1018.8 hPa NW 5.3 mph /  8.5 km/h 6.9 mph /  11.1 km/h 52 % 0.00 in /  0 mm
14:59 45.0 °F /  7.2 °C 29.3 °F /  -1.5 °C 30.10 in /  1019.2 hPa SW 4.9 mph /  7.9 km/h 7.0 mph /  11.3 km/h 54 % 0.00 in /  0 mm
15:04 44.8 °F /  7.1 °C 28.2 °F /  -2.1 °C 30.10 in /  1019.2 hPa WNW 5.0 mph /  8 km/h 10.4 mph /  16.7 km/h 52 % 0.00 in /  0 mm
15:09 44.7 °F /  7.1 °C 29.1 °F /  -1.6 °C 30.10 in /  1019.2 hPa West 4.0 mph /  6.4 km/h 9.0 mph /  14.5 km/h 54 % 0.00 in /  0 mm
15:14 44.5 °F /  6.9 °C 28.9 °F /  -1.7 °C 30.09 in /  1018.8 hPa West 2.0 mph /  3.2 km/h 4.6 mph /  7.4 km/h 54 % 0.00 in /  0 mm
15:19 44.5 °F /  6.9 °C 28.9 °F /  -1.7 °C 30.09 in /  1018.8 hPa NW 5.1 mph /  8.2 km/h 9.2 mph /  14.8 km/h 54 % 0.00 in /  0 mm
15:24 44.3 °F /  6.8 °C 28.2 °F /  -2.1 °C 30.10 in /  1019.2 hPa WNW 3.3 mph /  5.3 km/h 5.0 mph /  8 km/h 53 % 0.00 in /  0 mm
15:30 44.2 °F /  6.8 °C 28.1 °F /  -2.2 °C 30.10 in /  1019.2 hPa WNW 2.1 mph /  3.4 km/h 5.8 mph /  9.3 km/h 53 % 0.00 in /  0 mm
15:35 44.1 °F /  6.7 °C 28.0 °F /  -2.2 °C 30.10 in /  1019.2 hPa WNW 5.5 mph /  8.9 km/h 11.5 mph /  18.5 km/h 53 % 0.00 in /  0 mm
15:40 44.1 °F /  6.7 °C 28.5 °F /  -1.9 °C 30.10 in /  1019.2 hPa WNW 5.5 mph /  8.9 km/h 11.5 mph /  18.5 km/h 54 % 0.00 in /  0 mm
15:45 44.0 °F /  6.7 °C 28.4 °F /  -2 °C 30.10 in /  1019.2 hPa WNW 5.0 mph /  8 km/h 9.2 mph /  14.8 km/h 54 % 0.00 in /  0 mm
15:50 43.9 °F /  6.6 °C 28.3 °F /  -2.1 °C 30.10 in /  1019.2 hPa SW 4.5 mph /  7.2 km/h 8.1 mph /  13 km/h 54 % 0.00 in /  0 mm
15:55 43.8 °F /  6.6 °C 28.7 °F /  -1.8 °C 30.11 in /  1019.5 hPa WNW 3.3 mph /  5.3 km/h 5.8 mph /  9.3 km/h 55 % 0.00 in /  0 mm
16:00 43.8 °F /  6.6 °C 28.7 °F /  -1.8 °C 30.11 in /  1019.5 hPa NW 1.0 mph /  1.6 km/h 3.5 mph /  5.6 km/h 55 % 0.00 in /  0 mm
16:05 43.8 °F /  6.6 °C 28.2 °F /  -2.1 °C 30.11 in /  1019.5 hPa WSW 1.1 mph /  1.8 km/h 3.5 mph /  5.6 km/h 54 % 0.00 in /  0 mm
16:10 43.7 °F /  6.5 °C 28.6 °F /  -1.9 °C 30.11 in /  1019.5 hPa West 4.4 mph /  7.1 km/h 8.0 mph /  12.9 km/h 55 % 0.00 in /  0 mm
16:15 43.6 °F /  6.4 °C 28.9 °F /  -1.7 °C 30.12 in /  1019.9 hPa WSW 5.2 mph /  8.4 km/h 8.1 mph /  13 km/h 56 % 0.00 in /  0 mm
16:20 43.5 °F /  6.4 °C 28.8 °F /  -1.8 °C 30.12 in /  1019.9 hPa West 2.8 mph /  4.5 km/h 5.8 mph /  9.3 km/h 56 % 0.00 in /  0 mm
16:25 43.4 °F /  6.3 °C 28.7 °F /  -1.8 °C 30.12 in /  1019.9 hPa WNW 4.1 mph /  6.6 km/h 8.1 mph /  13 km/h 56 % 0.00 in /  0 mm
16:30 43.3 °F /  6.3 °C 29.1 °F /  -1.6 °C 30.12 in /  1019.9 hPa WNW 2.3 mph /  3.7 km/h 5.8 mph /  9.3 km/h 57 % 0.00 in /  0 mm
16:36 43.2 °F /  6.2 °C 29.4 °F /  -1.4 °C 30.13 in /  1020.2 hPa West 3.0 mph /  4.8 km/h 8.0 mph /  12.9 km/h 58 % 0.00 in /  0 mm
16:41 43.0 °F /  6.1 °C 28.8 °F /  -1.8 °C 30.13 in /  1020.2 hPa WSW 5.0 mph /  8 km/h 9.0 mph /  14.5 km/h 57 % 0.00 in /  0 mm
16:45 42.9 °F /  6.1 °C 28.7 °F /  -1.8 °C 30.13 in /  1020.2 hPa WNW 3.1 mph /  5 km/h 5.0 mph /  8 km/h 57 % 0.00 in /  0 mm
16:51 42.8 °F /  6 °C 29.1 °F /  -1.6 °C 30.13 in /  1020.2 hPa WNW 3.0 mph /  4.8 km/h 8.0 mph /  12.9 km/h 58 % 0.00 in /  0 mm
16:56 42.7 °F /  5.9 °C 28.9 °F /  -1.7 °C 30.13 in /  1020.2 hPa WNW 2.0 mph /  3.2 km/h 9.0 mph /  14.5 km/h 58 % 0.00 in /  0 mm
17:01 42.5 °F /  5.8 °C 29.2 °F /  -1.6 °C 30.14 in /  1020.5 hPa SW 2.2 mph /  3.5 km/h 3.5 mph /  5.6 km/h 59 % 0.00 in /  0 mm
17:06 42.4 °F /  5.8 °C 29.1 °F /  -1.6 °C 30.14 in /  1020.5 hPa NW 4.6 mph /  7.4 km/h 6.9 mph /  11.1 km/h 59 % 0.00 in /  0 mm
17:11 42.3 °F /  5.7 °C 29.0 °F /  -1.7 °C 30.15 in /  1020.9 hPa West 4.3 mph /  6.9 km/h 9.2 mph /  14.8 km/h 59 % 0.00 in /  0 mm
17:16 42.2 °F /  5.7 °C 29.3 °F /  -1.5 °C 30.15 in /  1020.9 hPa SSW 2.3 mph /  3.7 km/h 3.5 mph /  5.6 km/h 60 % 0.00 in /  0 mm
17:21 42.0 °F /  5.6 °C 29.5 °F /  -1.4 °C 30.16 in /  1021.2 hPa West 4.4 mph /  7.1 km/h 8.1 mph /  13 km/h 61 % 0.00 in /  0 mm
17:26 41.8 °F /  5.4 °C 29.3 °F /  -1.5 °C 30.15 in /  1020.9 hPa WSW 4.2 mph /  6.8 km/h 6.9 mph /  11.1 km/h 61 % 0.00 in /  0 mm
17:31 41.6 °F /  5.3 °C 29.1 °F /  -1.6 °C 30.17 in /  1021.6 hPa WSW 0.8 mph /  1.3 km/h 2.3 mph /  3.7 km/h 61 % 0.00 in /  0 mm
17:36 41.5 °F /  5.3 °C 29.4 °F /  -1.4 °C 30.17 in /  1021.6 hPa WSW 1.2 mph /  1.9 km/h 2.3 mph /  3.7 km/h 62 % 0.00 in /  0 mm
17:41 41.4 °F /  5.2 °C 29.7 °F /  -1.3 °C 30.17 in /  1021.6 hPa West 1.7 mph /  2.7 km/h 5.8 mph /  9.3 km/h 63 % 0.00 in /  0 mm
17:46 41.2 °F /  5.1 °C 29.5 °F /  -1.4 °C 30.18 in /  1021.9 hPa West 1.4 mph /  2.3 km/h 3.5 mph /  5.6 km/h 63 % 0.00 in /  0 mm
17:51 41.0 °F /  5 °C 29.4 °F /  -1.4 °C 30.17 in /  1021.6 hPa WSW 2.9 mph /  4.7 km/h 4.6 mph /  7.4 km/h 63 % 0.00 in /  0 mm
17:56 40.9 °F /  4.9 °C 29.7 °F /  -1.3 °C 30.18 in /  1021.9 hPa WNW 0.7 mph /  1.1 km/h 4.6 mph /  7.4 km/h 64 % 0.00 in /  0 mm
18:01 40.7 °F /  4.8 °C 29.8 °F /  -1.2 °C 30.18 in /  1021.9 hPa SW 1.1 mph /  1.8 km/h 5.8 mph /  9.3 km/h 65 % 0.00 in /  0 mm
18:06 40.5 °F /  4.7 °C 30.0 °F /  -1.1 °C 30.18 in /  1021.9 hPa Calm   3.5 mph /  5.6 km/h 66 % 0.00 in /  0 mm
18:11 40.3 °F /  4.6 °C 29.8 °F /  -1.2 °C 30.18 in /  1021.9 hPa WNW 1.0 mph /  1.6 km/h 3.0 mph /  4.8 km/h 66 % 0.00 in /  0 mm
18:16 40.2 °F /  4.6 °C 29.7 °F /  -1.3 °C 30.18 in /  1021.9 hPa Calm     66 % 0.00 in /  0 mm
18:22 40.0 °F /  4.4 °C 29.6 °F /  -1.3 °C 30.19 in /  1022.2 hPa SW 2.0 mph /  3.2 km/h 2.0 mph /  3.2 km/h 66 % 0.00 in /  0 mm
18:27 39.8 °F /  4.3 °C 29.7 °F /  -1.3 °C 30.19 in /  1022.2 hPa SW 0.6 mph /  1 km/h 2.3 mph /  3.7 km/h 67 % 0.00 in /  0 mm
18:32 39.7 °F /  4.3 °C 30.0 °F /  -1.1 °C 30.19 in /  1022.2 hPa WSW 2.1 mph /  3.4 km/h 5.8 mph /  9.3 km/h 68 % 0.00 in /  0 mm
18:37 39.4 °F /  4.1 °C 30.1 °F /  -1.1 °C 30.20 in /  1022.6 hPa SW 1.1 mph /  1.8 km/h 3.5 mph /  5.6 km/h 69 % 0.00 in /  0 mm
18:42 39.2 °F /  4 °C 29.9 °F /  -1.2 °C 30.20 in /  1022.6 hPa Calm     69 % 0.00 in /  0 mm
18:47 38.9 °F /  3.8 °C 29.9 °F /  -1.2 °C 30.20 in /  1022.6 hPa SW 0.2 mph /  0.3 km/h 1.2 mph /  1.9 km/h 70 % 0.00 in /  0 mm
18:52 38.7 °F /  3.7 °C 29.8 °F /  -1.2 °C 30.20 in /  1022.6 hPa SW 0.3 mph /  0.5 km/h 2.3 mph /  3.7 km/h 70 % 0.00 in /  0 mm
18:57 38.5 °F /  3.6 °C 29.6 °F /  -1.3 °C 30.21 in /  1022.9 hPa Calm     70 % 0.00 in /  0 mm
19:02 38.3 °F /  3.5 °C 29.7 °F /  -1.3 °C 30.20 in /  1022.6 hPa Calm   1.2 mph /  1.9 km/h 71 % 0.00 in /  0 mm
19:07 38.0 °F /  3.3 °C 29.4 °F /  -1.4 °C 30.21 in /  1022.9 hPa Calm   1.2 mph /  1.9 km/h 71 % 0.00 in /  0 mm
19:12 37.8 °F /  3.2 °C 29.2 °F /  -1.6 °C 30.21 in /  1022.9 hPa Calm     71 % 0.00 in /  0 mm
19:17 37.6 °F /  3.1 °C 29.0 °F /  -1.7 °C 30.21 in /  1022.9 hPa SW 1.9 mph /  3.1 km/h 3.5 mph /  5.6 km/h 71 % 0.00 in /  0 mm
19:22 37.3 °F /  2.9 °C 29.1 °F /  -1.6 °C 30.21 in /  1022.9 hPa Calm     72 % 0.00 in /  0 mm
19:27 37.0 °F /  2.8 °C 28.8 °F /  -1.8 °C 30.22 in /  1023.2 hPa Calm   1.2 mph /  1.9 km/h 72 % 0.00 in /  0 mm
19:32 36.8 °F /  2.7 °C 29.0 °F /  -1.7 °C 30.21 in /  1022.9 hPa Calm     73 % 0.00 in /  0 mm
19:37 36.6 °F /  2.6 °C 28.8 °F /  -1.8 °C 30.21 in /  1022.9 hPa WSW 1.1 mph /  1.8 km/h 1.2 mph /  1.9 km/h 73 % 0.00 in /  0 mm
19:43 36.4 °F /  2.4 °C 28.6 °F /  -1.9 °C 30.22 in /  1023.2 hPa WSW 1.3 mph /  2.1 km/h 3.5 mph /  5.6 km/h 73 % 0.00 in /  0 mm
19:48 36.2 °F /  2.3 °C 28.4 °F /  -2 °C 30.22 in /  1023.2 hPa Calm     73 % 0.00 in /  0 mm
19:53 36.1 °F /  2.3 °C 28.6 °F /  -1.9 °C 30.22 in /  1023.2 hPa WSW 1.1 mph /  1.8 km/h 1.2 mph /  1.9 km/h 74 % 0.00 in /  0 mm
19:58 36.0 °F /  2.2 °C 28.5 °F /  -1.9 °C 30.22 in /  1023.2 hPa West 1.3 mph /  2.1 km/h 5.8 mph /  9.3 km/h 74 % 0.00 in /  0 mm
20:03 35.9 °F /  2.2 °C 28.4 °F /  -2 °C 30.22 in /  1023.2 hPa WNW 0.8 mph /  1.3 km/h 3.5 mph /  5.6 km/h 74 % 0.00 in /  0 mm
20:08 35.9 °F /  2.2 °C 28.4 °F /  -2 °C 30.24 in /  1023.9 hPa West 0.9 mph /  1.4 km/h 3.5 mph /  5.6 km/h 74 % 0.00 in /  0 mm
20:13 35.8 °F /  2.1 °C 28.6 °F /  -1.9 °C 30.23 in /  1023.6 hPa West 0.2 mph /  0.3 km/h 1.0 mph /  1.6 km/h 75 % 0.00 in /  0 mm
20:18 35.7 °F /  2.1 °C 28.6 °F /  -1.9 °C 30.24 in /  1023.9 hPa Calm   1.2 mph /  1.9 km/h 75 % 0.00 in /  0 mm
20:23 35.7 °F /  2.1 °C 28.6 °F /  -1.9 °C 30.24 in /  1023.9 hPa West 1.5 mph /  2.4 km/h 3.5 mph /  5.6 km/h 75 % 0.00 in /  0 mm
20:28 35.6 °F /  2 °C 28.5 °F /  -1.9 °C 30.24 in /  1023.9 hPa Calm     75 % 0.00 in /  0 mm
20:33 35.6 °F /  2 °C 28.5 °F /  -1.9 °C 30.24 in /  1023.9 hPa Calm     75 % 0.00 in /  0 mm
20:38 35.5 °F /  1.9 °C 28.7 °F /  -1.8 °C 30.24 in /  1023.9 hPa West 1.6 mph /  2.6 km/h 2.3 mph /  3.7 km/h 76 % 0.00 in /  0 mm
20:43 35.3 °F /  1.8 °C 28.5 °F /  -1.9 °C 30.24 in /  1023.9 hPa Calm     76 % 0.00 in /  0 mm
20:48 35.2 °F /  1.8 °C 28.4 °F /  -2 °C 30.25 in /  1024.3 hPa West 1.6 mph /  2.6 km/h 3.5 mph /  5.6 km/h 76 % 0.00 in /  0 mm
20:53 35.1 °F /  1.7 °C 28.6 °F /  -1.9 °C 30.25 in /  1024.3 hPa West 1.8 mph /  2.9 km/h 3.5 mph /  5.6 km/h 77 % 0.00 in /  0 mm
20:58 34.9 °F /  1.6 °C 28.4 °F /  -2 °C 30.26 in /  1024.6 hPa Calm     77 % 0.00 in /  0 mm
21:03 34.7 °F /  1.5 °C 28.5 °F /  -1.9 °C 30.25 in /  1024.3 hPa West 1.5 mph /  2.4 km/h 2.3 mph /  3.7 km/h 78 % 0.00 in /  0 mm
21:08 34.5 °F /  1.4 °C 28.3 °F /  -2.1 °C 30.25 in /  1024.3 hPa Calm     78 % 0.00 in /  0 mm
21:14 34.3 °F /  1.3 °C 28.5 °F /  -1.9 °C 30.26 in /  1024.6 hPa WSW 0.7 mph /  1.1 km/h 3.0 mph /  4.8 km/h 79 % 0.00 in /  0 mm
21:19 34.1 °F /  1.2 °C 28.3 °F /  -2.1 °C 30.25 in /  1024.3 hPa SW 0.3 mph /  0.5 km/h 2.3 mph /  3.7 km/h 79 % 0.00 in /  0 mm
21:24 33.9 °F /  1.1 °C 28.1 °F /  -2.2 °C 30.26 in /  1024.6 hPa Calm     79 % 0.00 in /  0 mm
21:29 33.8 °F /  1 °C 28.0 °F /  -2.2 °C 30.26 in /  1024.6 hPa Calm     79 % 0.00 in /  0 mm
21:34 33.5 °F /  0.8 °C 28.0 °F /  -2.2 °C 30.26 in /  1024.6 hPa Calm     80 % 0.00 in /  0 mm
21:39 33.3 °F /  0.7 °C 27.8 °F /  -2.3 °C 30.26 in /  1024.6 hPa Calm     80 % 0.00 in /  0 mm
21:44 33.2 °F /  0.7 °C 27.7 °F /  -2.4 °C 30.27 in /  1024.9 hPa Calm     80 % 0.00 in /  0 mm
21:49 32.9 °F /  0.5 °C 27.4 °F /  -2.6 °C 30.27 in /  1024.9 hPa Calm     80 % 0.00 in /  0 mm
21:54 32.8 °F /  0.4 °C 27.3 °F /  -2.6 °C 30.27 in /  1024.9 hPa Calm     80 % 0.00 in /  0 mm
21:59 32.5 °F /  0.3 °C 27.3 °F /  -2.6 °C 30.27 in /  1024.9 hPa Calm     81 % 0.00 in /  0 mm
22:04 32.3 °F /  0.2 °C 27.1 °F /  -2.7 °C 30.27 in /  1024.9 hPa Calm     81 % 0.00 in /  0 mm
22:09 32.1 °F /  0.1 °C 27.2 °F /  -2.7 °C 30.27 in /  1024.9 hPa West 1.3 mph /  2.1 km/h 2.3 mph /  3.7 km/h 82 % 0.00 in /  0 mm
22:14 31.9 °F /  -0.1 °C 27.0 °F /  -2.8 °C 30.28 in /  1025.3 hPa Calm     82 % 0.00 in /  0 mm
22:19 31.7 °F /  -0.2 °C 27.1 °F /  -2.7 °C 30.27 in /  1024.9 hPa West 1.0 mph /  1.6 km/h 2.3 mph /  3.7 km/h 83 % 0.00 in /  0 mm
22:24 31.5 °F /  -0.3 °C 26.9 °F /  -2.8 °C 30.28 in /  1025.3 hPa Calm     83 % 0.00 in /  0 mm
22:29 31.4 °F /  -0.3 °C 26.8 °F /  -2.9 °C 30.28 in /  1025.3 hPa West 0.4 mph /  0.6 km/h 2.3 mph /  3.7 km/h 83 % 0.00 in /  0 mm
22:34 31.2 °F /  -0.4 °C 26.9 °F /  -2.8 °C 30.28 in /  1025.3 hPa Calm     84 % 0.00 in /  0 mm
22:39 31.1 °F /  -0.5 °C 26.8 °F /  -2.9 °C 30.28 in /  1025.3 hPa Calm   2.3 mph /  3.7 km/h 84 % 0.00 in /  0 mm
22:44 30.9 °F /  -0.6 °C 26.6 °F /  -3 °C 30.27 in /  1024.9 hPa Calm     84 % 0.00 in /  0 mm
22:49 30.8 °F /  -0.7 °C 26.8 °F /  -2.9 °C 30.27 in /  1024.9 hPa Calm     85 % 0.00 in /  0 mm
22:55 30.7 °F /  -0.7 °C 26.7 °F /  -2.9 °C 30.27 in /  1024.9 hPa Calm     85 % 0.00 in /  0 mm
23:00 30.6 °F /  -0.8 °C 26.6 °F /  -3 °C 30.27 in /  1024.9 hPa Calm     85 % 0.00 in /  0 mm
23:05 30.5 °F /  -0.8 °C 26.5 °F /  -3.1 °C 30.28 in /  1025.3 hPa Calm     85 % 0.00 in /  0 mm
23:10 30.4 °F /  -0.9 °C 26.4 °F /  -3.1 °C 30.28 in /  1025.3 hPa Calm     85 % 0.00 in /  0 mm
23:15 30.3 °F /  -0.9 °C 26.6 °F /  -3 °C 30.27 in /  1024.9 hPa ENE 0.5 mph /  0.8 km/h 1.2 mph /  1.9 km/h 86 % 0.00 in /  0 mm
23:20 30.2 °F /  -1 °C 26.8 °F /  -2.9 °C 30.28 in /  1025.3 hPa East 0.4 mph /  0.6 km/h 2.3 mph /  3.7 km/h 87 % 0.00 in /  0 mm
23:25 30.3 °F /  -0.9 °C 26.9 °F /  -2.8 °C 30.27 in /  1024.9 hPa Calm     87 % 0.00 in /  0 mm
23:30 30.2 °F /  -1 °C 26.8 °F /  -2.9 °C 30.27 in /  1024.9 hPa Calm     87 % 0.00 in /  0 mm
23:35 30.2 °F /  -1 °C 26.8 °F /  -2.9 °C 30.27 in /  1024.9 hPa Calm     87 % 0.00 in /  0 mm
23:40 30.2 °F /  -1 °C 26.8 °F /  -2.9 °C 30.28 in /  1025.3 hPa East 0.3 mph /  0.5 km/h 2.3 mph /  3.7 km/h 87 % 0.00 in /  0 mm
23:45 30.2 °F /  -1 °C 27.1 °F /  -2.7 °C 30.28 in /  1025.3 hPa East 0.2 mph /  0.3 km/h 2.0 mph /  3.2 km/h 88 % 0.00 in /  0 mm
23:50 30.2 °F /  -1 °C 27.1 °F /  -2.7 °C 30.28 in /  1025.3 hPa Calm     88 % 0.00 in /  0 mm
23:55 30.3 °F /  -0.9 °C 27.2 °F /  -2.7 °C 30.28 in /  1025.3 hPa Calm   2.3 mph /  3.7 km/h 88 % 0.00 in /  0 mm
Crab Meadow Weather
Compliments of Weather Underground - 3 mb

Script developed by  Jim McMurry - jmcmurry@mwt.net Adapted for the template by  Wim van der Kuil - Leuven-Template.eu

Astronomy: The light of the Sun takes 8 minutes to reach Earth.